Time;durP1;ratioP1;P1;durP2;ratioP2;P2;SDS_P1;SDS_P2;PMS_P1;PMS_P2;Temp;Humidity;BMP_temperature;BMP_pressure;BME280_temperature;BME280_humidity;BME280_pressure;Samples;Min_cycle;Max_cycle;Signal;HPM_P1;HPM_P2
2022/01/09 00:00:37;;;;;;;12.03;5.50;;;0.70;99.90;;;;;;5052088;28;20270;-72
2022/01/09 00:03:02;;;;;;;12.90;5.80;;;0.70;99.90;;;;;;5053027;28;20196;-72
2022/01/09 00:05:28;;;;;;;11.60;5.40;;;0.70;99.90;;;;;;5051992;28;20235;-72
2022/01/09 00:07:54;;;;;;;10.43;5.77;;;0.70;99.90;;;;;;5052376;28;20256;-72
2022/01/09 00:10:20;;;;;;;10.03;5.43;;;0.70;99.90;;;;;;5051691;28;20200;-72
2022/01/09 00:12:46;;;;;;;13.27;5.60;;;0.60;99.90;;;;;;5050540;28;20222;-73
2022/01/09 00:15:12;;;;;;;8.00;4.80;;;0.70;99.90;;;;;;5051293;28;20559;-73
2022/01/09 00:17:38;;;;;;;7.97;4.97;;;0.70;99.90;;;;;;5052228;28;20291;-72
2022/01/09 00:20:05;;;;;;;9.97;5.63;;;0.70;99.90;;;;;;5051923;28;20203;-72
2022/01/09 00:22:40;;;;;;;8.97;5.33;;;0.60;99.90;;;;;;5052079;28;20273;-72
2022/01/09 00:25:06;;;;;;;9.87;5.10;;;0.60;99.90;;;;;;5052300;28;20685;-72
2022/01/09 00:27:32;;;;;;;5.90;4.23;;;0.70;99.90;;;;;;5061901;28;20247;-73
2022/01/09 00:29:57;;;;;;;11.30;4.57;;;0.60;99.90;;;;;;5064827;28;20662;-73
2022/01/09 00:32:23;;;;;;;9.47;4.90;;;0.70;99.90;;;;;;5057004;28;20211;-73
2022/01/09 00:34:48;;;;;;;7.87;5.00;;;0.70;99.90;;;;;;5051887;28;20225;-72
2022/01/09 00:37:14;;;;;;;6.90;4.13;;;0.70;99.90;;;;;;5052545;28;20594;-73
2022/01/09 00:39:39;;;;;;;7.73;4.40;;;0.70;99.90;;;;;;5049956;28;20664;-73
2022/01/09 00:42:05;;;;;;;10.27;5.27;;;0.70;99.90;;;;;;5051453;28;20178;-73
2022/01/09 00:44:31;;;;;;;7.23;4.80;;;0.70;99.90;;;;;;5051391;28;20222;-72
2022/01/09 00:47:00;;;;;;;8.33;4.50;;;0.70;99.90;;;;;;5052072;28;20230;-72
2022/01/09 00:49:26;;;;;;;12.87;4.90;;;0.70;99.90;;;;;;5033058;28;20212;-73
2022/01/09 00:51:51;;;;;;;6.17;4.40;;;0.70;99.90;;;;;;5033884;28;20305;-72
2022/01/09 00:54:17;;;;;;;6.30;4.53;;;0.70;99.90;;;;;;5051541;28;20294;-72
2022/01/09 00:56:42;;;;;;;8.33;4.83;;;0.70;99.90;;;;;;5051684;28;20183;-72
2022/01/09 00:59:08;;;;;;;7.90;4.90;;;0.80;99.90;;;;;;5051116;28;20219;-72
2022/01/09 01:01:33;;;;;;;8.53;5.07;;;0.70;99.90;;;;;;5051295;28;20246;-72
2022/01/09 01:03:59;;;;;;;7.40;4.80;;;0.70;99.90;;;;;;5033116;28;20591;-73
2022/01/09 01:06:24;;;;;;;8.17;4.10;;;0.60;99.90;;;;;;5033229;28;20218;-71
2022/01/09 01:08:50;;;;;;;8.00;4.40;;;0.70;99.90;;;;;;5051446;28;20198;-72
2022/01/09 01:11:15;;;;;;;6.97;4.20;;;0.60;99.90;;;;;;5050971;28;20211;-72
2022/01/09 01:13:41;;;;;;;7.43;3.87;;;0.60;99.90;;;;;;5050612;28;20295;-72
2022/01/09 01:16:06;;;;;;;7.27;4.70;;;0.60;99.90;;;;;;5051168;28;20221;-72
2022/01/09 01:18:32;;;;;;;9.13;5.20;;;0.60;99.90;;;;;;5050605;28;20183;-72
2022/01/09 01:20:57;;;;;;;8.93;4.80;;;0.60;99.90;;;;;;5051445;28;20272;-72
2022/01/09 01:23:23;;;;;;;7.30;4.50;;;0.60;99.90;;;;;;5050717;28;20221;-72
2022/01/09 01:25:51;;;;;;;9.87;4.80;;;0.50;99.90;;;;;;5032969;28;20288;-72
2022/01/09 01:28:18;;;;;;;7.93;4.57;;;0.40;99.90;;;;;;5050805;28;20216;-72
2022/01/09 01:30:43;;;;;;;7.43;3.97;;;0.50;99.90;;;;;;5050650;28;20759;-72
2022/01/09 01:33:09;;;;;;;9.83;4.97;;;0.40;99.90;;;;;;5051349;28;20285;-73
2022/01/09 01:35:35;;;;;;;6.50;4.60;;;0.50;99.90;;;;;;5050473;28;20306;-72
2022/01/09 01:38:00;;;;;;;12.03;5.33;;;0.40;99.90;;;;;;5032964;28;20222;-72
2022/01/09 01:40:26;;;;;;;9.73;4.83;;;0.40;99.90;;;;;;5050190;28;20221;-72
2022/01/09 01:42:51;;;;;;;8.53;5.17;;;0.40;99.90;;;;;;5050748;28;20776;-72
2022/01/09 01:45:17;;;;;;;7.93;4.80;;;0.40;99.90;;;;;;5032593;28;20190;-72
2022/01/09 01:47:43;;;;;;;9.80;5.73;;;0.40;99.90;;;;;;5033547;28;20177;-71
2022/01/09 01:50:12;;;;;;;8.53;5.60;;;0.40;99.90;;;;;;5049983;28;20222;-72
2022/01/09 01:52:41;;;;;;;10.07;5.57;;;0.40;99.90;;;;;;5049220;28;20596;-72
2022/01/09 01:55:09;;;;;;;9.77;5.43;;;0.30;99.90;;;;;;5049954;28;20222;-72
2022/01/09 01:57:37;;;;;;;11.27;6.20;;;0.40;99.90;;;;;;5049412;28;20187;-72
2022/01/09 02:00:06;;;;;;;9.00;5.53;;;0.30;99.90;;;;;;5040609;28;20181;-72
2022/01/09 02:02:31;;;;;;;11.87;5.17;;;0.40;99.90;;;;;;5047357;28;20749;-72
2022/01/09 02:04:57;;;;;;;13.67;5.77;;;0.30;99.90;;;;;;5048814;28;20295;-72
2022/01/09 02:07:23;;;;;;;9.17;5.57;;;0.30;99.90;;;;;;5049702;28;20590;-72
2022/01/09 02:09:49;;;;;;;9.70;5.93;;;0.30;99.90;;;;;;5049589;28;20214;-71
2022/01/09 02:12:15;;;;;;;10.20;5.10;;;0.30;99.90;;;;;;5032881;28;20182;-71
2022/01/09 02:14:45;;;;;;;11.03;5.83;;;0.30;99.90;;;;;;5049591;28;20223;-72
2022/01/09 02:17:10;;;;;;;9.77;5.77;;;0.30;99.90;;;;;;5050184;28;20682;-73
2022/01/09 02:19:36;;;;;;;10.63;6.03;;;0.30;99.90;;;;;;5050393;28;20207;-72
2022/01/09 02:22:02;;;;;;;9.57;5.27;;;0.30;99.90;;;;;;5032944;28;20209;-72
2022/01/09 02:24:27;;;;;;;10.47;5.47;;;0.30;99.90;;;;;;5049585;28;20328;-71
2022/01/09 02:26:53;;;;;;;7.90;4.90;;;0.30;99.90;;;;;;5050573;28;20176;-72
2022/01/09 02:29:18;;;;;;;10.70;5.63;;;0.30;99.90;;;;;;5031574;28;20267;-72
2022/01/09 02:31:45;;;;;;;10.10;5.53;;;0.30;99.90;;;;;;5049650;28;20205;-72
2022/01/09 02:34:11;;;;;;;11.00;5.93;;;0.40;99.90;;;;;;5031845;28;20212;-71
2022/01/09 02:36:37;;;;;;;12.70;6.10;;;0.30;99.90;;;;;;5049717;28;20261;-71
2022/01/09 02:39:03;;;;;;;10.37;5.97;;;0.30;99.90;;;;;;5032171;28;20182;-71
2022/01/09 02:41:28;;;;;;;11.70;6.07;;;0.30;99.90;;;;;;5049646;28;20216;-71
2022/01/09 02:43:54;;;;;;;11.00;6.03;;;0.30;99.90;;;;;;5049563;28;20218;-72
2022/01/09 02:49:05;;;;;;;9.47;5.53;;;0.30;99.90;;;;;;5049513;28;20226;-71
2022/01/09 02:51:31;;;;;;;10.37;5.63;;;0.40;99.90;;;;;;5037571;28;20390;-72
2022/01/09 02:55:03;;;;;;;10.40;5.87;;;0.30;99.90;;;;;;5050071;28;20281;-72
2022/01/09 02:56:42;;;;;;;11.13;6.17;;;0.30;99.90;;;;;;5049680;28;20624;-72
2022/01/09 02:59:07;;;;;;;11.83;5.53;;;0.30;99.90;;;;;;5048358;28;20208;-72
2022/01/09 03:01:33;;;;;;;11.63;6.30;;;0.40;99.90;;;;;;5049580;28;20202;-72
2022/01/09 03:03:58;;;;;;;11.77;5.77;;;0.30;99.90;;;;;;5048826;28;20224;-72
2022/01/09 03:06:24;;;;;;;13.50;6.57;;;0.30;99.90;;;;;;5051925;28;20191;-72
2022/01/09 03:08:49;;;;;;;11.43;5.60;;;0.30;99.90;;;;;;5053394;28;20550;-72
2022/01/09 03:11:15;;;;;;;12.87;6.63;;;0.30;99.90;;;;;;5052999;28;20207;-72
2022/01/09 03:13:40;;;;;;;11.83;5.97;;;0.30;99.90;;;;;;5052659;28;20251;-72
2022/01/09 03:16:06;;;;;;;16.37;6.30;;;0.30;99.90;;;;;;5053008;28;20698;-72
2022/01/09 03:18:31;;;;;;;15.07;7.07;;;0.20;99.90;;;;;;5052699;28;20273;-72
2022/01/09 03:20:57;;;;;;;11.73;6.53;;;0.30;99.90;;;;;;5053288;28;20205;-72
2022/01/09 03:23:22;;;;;;;10.93;6.33;;;0.30;99.90;;;;;;5052777;28;20214;-72
2022/01/09 03:25:48;;;;;;;13.73;6.27;;;0.30;99.90;;;;;;5052595;28;20581;-72
2022/01/09 03:28:13;;;;;;;15.53;6.10;;;0.30;99.90;;;;;;5034695;28;20299;-73
2022/01/09 03:30:38;;;;;;;11.60;6.50;;;0.30;99.90;;;;;;5034306;28;20284;-72
2022/01/09 03:33:04;;;;;;;14.13;6.23;;;0.30;99.90;;;;;;5051320;28;20206;-73
2022/01/09 03:35:30;;;;;;;12.73;6.03;;;0.30;99.90;;;;;;5050922;28;20227;-72
2022/01/09 03:37:55;;;;;;;8.23;5.20;;;0.30;99.90;;;;;;5053600;28;20209;-72
2022/01/09 03:40:24;;;;;;;11.17;5.63;;;0.30;99.90;;;;;;5052128;28;20287;-71
2022/01/09 03:42:54;;;;;;;9.37;5.47;;;0.30;99.90;;;;;;5051682;28;20700;-72
2022/01/09 03:45:21;;;;;;;9.80;5.87;;;0.30;99.90;;;;;;5033760;28;20180;-72
2022/01/09 03:47:47;;;;;;;11.47;5.97;;;0.30;99.90;;;;;;5033148;28;20229;-73
2022/01/09 03:50:14;;;;;;;11.40;5.90;;;0.30;99.90;;;;;;5033567;28;20215;-73
2022/01/09 03:52:41;;;;;;;12.17;5.43;;;0.30;99.90;;;;;;5034565;28;20560;-72
2022/01/09 03:55:09;;;;;;;10.23;5.63;;;0.30;99.90;;;;;;5052036;28;20459;-72
2022/01/09 03:57:34;;;;;;;10.43;4.97;;;0.30;99.90;;;;;;5052014;28;20226;-72
2022/01/09 04:00:00;;;;;;;12.97;6.00;;;0.30;99.90;;;;;;5052206;28;20180;-72
2022/01/09 04:02:25;;;;;;;9.53;5.20;;;0.30;99.90;;;;;;5051916;28;20207;-73
2022/01/09 04:04:51;;;;;;;11.63;5.80;;;0.30;99.90;;;;;;5033757;28;20218;-72
2022/01/09 04:07:17;;;;;;;10.60;5.87;;;0.20;99.90;;;;;;5052179;28;20628;-72
2022/01/09 04:09:45;;;;;;;10.03;5.33;;;0.30;99.90;;;;;;5051405;28;20580;-71
2022/01/09 04:12:18;;;;;;;12.83;4.93;;;0.30;99.90;;;;;;5052336;28;20178;-71
2022/01/09 04:14:48;;;;;;;11.37;5.50;;;0.20;99.90;;;;;;5033676;28;20266;-71
2022/01/09 04:17:24;;;;;;;9.50;5.33;;;0.20;99.90;;;;;;5052222;28;20213;-70
2022/01/09 04:19:49;;;;;;;8.80;5.27;;;0.20;99.90;;;;;;5055931;28;20203;-72
2022/01/09 04:22:15;;;;;;;11.60;5.37;;;0.20;99.90;;;;;;5063984;28;20219;-72
2022/01/09 04:24:40;;;;;;;10.47;5.40;;;0.20;99.90;;;;;;5056391;28;20205;-72
2022/01/09 04:27:06;;;;;;;11.47;4.70;;;0.20;99.90;;;;;;5035458;28;20793;-71
2022/01/09 04:29:32;;;;;;;11.20;5.07;;;0.20;99.90;;;;;;5044188;28;20698;-71
2022/01/09 04:31:57;;;;;;;13.87;5.70;;;0.20;99.90;;;;;;5034061;28;20292;-71
2022/01/09 04:34:23;;;;;;;8.97;5.33;;;0.20;99.90;;;;;;5051255;28;20212;-71
2022/01/09 04:36:48;;;;;;;8.97;5.00;;;0.20;99.90;;;;;;5050994;28;20204;-71
2022/01/09 04:39:14;;;;;;;9.53;5.67;;;0.20;99.90;;;;;;5033722;28;20244;-71
2022/01/09 04:41:39;;;;;;;8.07;4.93;;;0.20;99.90;;;;;;5033545;28;20295;-71
2022/01/09 04:44:05;;;;;;;8.37;5.27;;;0.20;99.90;;;;;;5033554;28;20641;-71
2022/01/09 04:46:40;;;;;;;8.95;4.63;;;0.20;99.90;;;;;;5051543;28;20408;-71
2022/01/09 04:49:06;;;;;;;7.93;4.90;;;0.20;99.90;;;;;;5032463;28;20338;-71
2022/01/09 04:51:31;;;;;;;8.30;4.93;;;0.20;99.90;;;;;;5051069;28;20208;-72
2022/01/09 04:53:57;;;;;;;9.07;4.40;;;0.30;99.90;;;;;;5033479;28;20185;-72
2022/01/09 04:56:22;;;;;;;8.30;4.60;;;0.20;99.90;;;;;;5050636;28;20212;-71
2022/01/09 04:58:48;;;;;;;10.13;4.23;;;0.30;99.90;;;;;;5050507;28;20774;-71
2022/01/09 05:01:13;;;;;;;11.60;4.70;;;0.30;99.90;;;;;;5050977;28;20204;-72
2022/01/09 05:03:39;;;;;;;8.10;4.10;;;0.20;99.90;;;;;;5050759;28;20220;-71
2022/01/09 05:06:04;;;;;;;9.00;4.10;;;0.30;99.90;;;;;;5051106;28;20191;-72
2022/01/09 05:08:30;;;;;;;10.47;4.77;;;0.30;99.90;;;;;;5050577;28;20217;-71
2022/01/09 05:10:56;;;;;;;9.27;4.20;;;0.30;99.90;;;;;;5050392;28;20811;-71
2022/01/09 05:13:21;;;;;;;7.70;3.80;;;0.30;99.90;;;;;;5071845;23;20314;-68
2022/01/09 05:15:47;;;;;;;10.47;4.13;;;0.30;99.90;;;;;;5050707;28;20625;-72
2022/01/09 05:18:14;;;;;;;10.17;4.07;;;0.30;99.90;;;;;;5050712;28;20662;-69
2022/01/09 05:20:42;;;;;;;7.30;4.20;;;0.30;99.90;;;;;;5049169;28;20209;-69
2022/01/09 05:23:07;;;;;;;9.47;4.07;;;0.30;99.90;;;;;;5051279;28;20257;-71
2022/01/09 05:25:33;;;;;;;7.93;3.93;;;0.40;99.90;;;;;;5048525;28;20258;-71
2022/01/09 05:27:58;;;;;;;8.27;4.03;;;0.30;99.90;;;;;;5049726;28;20690;-70
2022/01/09 05:30:24;;;;;;;7.03;3.50;;;0.30;99.90;;;;;;5049055;28;20209;-72
2022/01/09 05:32:49;;;;;;;9.10;4.50;;;0.40;99.90;;;;;;5050144;28;20259;-69
2022/01/09 05:35:15;;;;;;;5.47;3.70;;;0.40;99.90;;;;;;5050124;28;20224;-70
2022/01/09 05:37:40;;;;;;;7.13;3.67;;;0.40;99.90;;;;;;5050250;28;20653;-70
2022/01/09 05:40:06;;;;;;;8.90;4.60;;;0.40;99.90;;;;;;5050091;28;20682;-70
2022/01/09 05:42:32;;;;;;;10.87;4.40;;;0.40;99.90;;;;;;5050204;28;20228;-71
2022/01/09 05:44:57;;;;;;;8.63;4.23;;;0.40;99.90;;;;;;5050593;28;20582;-70
2022/01/09 05:47:23;;;;;;;6.23;3.70;;;0.40;99.90;;;;;;5050368;28;20234;-72
2022/01/09 05:49:48;;;;;;;9.43;3.80;;;0.40;99.90;;;;;;5047237;28;20232;-70
2022/01/09 05:52:14;;;;;;;6.93;4.03;;;0.50;99.90;;;;;;5050342;28;20662;-70
2022/01/09 05:54:39;;;;;;;6.37;4.10;;;0.40;99.90;;;;;;5050304;28;20222;-73
2022/01/09 05:57:05;;;;;;;7.67;3.57;;;0.50;99.90;;;;;;5050772;28;20194;-67
2022/01/09 05:59:30;;;;;;;7.00;3.07;;;0.50;99.90;;;;;;5049375;28;20296;-69
2022/01/09 06:01:57;;;;;;;8.80;3.43;;;0.50;99.90;;;;;;5050283;28;20611;-71
2022/01/09 06:04:23;;;;;;;7.20;3.53;;;0.60;99.90;;;;;;5050118;28;20231;-70
2022/01/09 06:06:49;;;;;;;6.23;3.30;;;0.60;99.90;;;;;;5049107;28;20216;-72
2022/01/09 06:09:15;;;;;;;9.07;3.83;;;0.60;99.90;;;;;;5050586;28;20258;-72
2022/01/09 06:11:41;;;;;;;6.60;4.00;;;0.60;99.90;;;;;;5050051;28;20242;-72
2022/01/09 06:14:06;;;;;;;9.80;4.13;;;0.60;99.90;;;;;;5049716;28;20310;-69
2022/01/09 06:16:32;;;;;;;7.50;3.70;;;0.70;99.90;;;;;;5065399;28;20705;-71
2022/01/09 06:18:57;;;;;;;6.63;3.40;;;0.70;99.90;;;;;;5049827;28;20199;-72
2022/01/09 06:21:26;;;;;;;7.03;3.57;;;0.70;99.90;;;;;;5050161;28;20584;-71
2022/01/09 06:23:52;;;;;;;10.50;4.37;;;0.70;99.90;;;;;;5049332;28;20231;-71
2022/01/09 06:26:17;;;;;;;7.77;3.77;;;0.70;99.90;;;;;;5049909;28;20236;-71
2022/01/09 06:28:43;;;;;;;6.10;3.60;;;0.80;99.90;;;;;;5065238;28;20206;-70
2022/01/09 06:31:08;;;;;;;5.33;3.73;;;0.80;99.90;;;;;;5049844;28;20210;-72
2022/01/09 06:33:33;;;;;;;7.37;4.30;;;0.80;99.90;;;;;;5050057;28;20196;-70
2022/01/09 06:35:59;;;;;;;5.57;3.70;;;0.80;99.90;;;;;;5050368;28;20263;-70
2022/01/09 06:38:24;;;;;;;11.60;3.97;;;0.80;99.90;;;;;;5064818;28;20704;-71
2022/01/09 06:40:50;;;;;;;11.03;4.40;;;0.80;99.90;;;;;;5048208;28;20238;-70
2022/01/09 06:43:15;;;;;;;7.43;3.97;;;0.90;99.90;;;;;;5053304;28;20302;-71
2022/01/09 06:45:41;;;;;;;8.87;3.90;;;0.80;99.90;;;;;;5052973;28;20219;-70
2022/01/09 06:48:06;;;;;;;6.83;4.37;;;0.80;99.90;;;;;;5051695;28;20554;-70
2022/01/09 06:50:32;;;;;;;8.27;3.93;;;0.80;99.90;;;;;;5051537;28;20267;-71
2022/01/09 06:52:57;;;;;;;6.77;3.70;;;0.80;99.90;;;;;;5053272;28;20258;-69
2022/01/09 06:55:23;;;;;;;8.07;3.63;;;0.90;99.90;;;;;;5049148;28;20212;-71
2022/01/09 06:57:49;;;;;;;9.80;3.67;;;0.90;99.90;;;;;;5052736;28;20697;-71
2022/01/09 07:00:17;;;;;;;9.00;4.03;;;0.90;99.90;;;;;;5053058;28;20188;-71
2022/01/09 07:02:43;;;;;;;8.57;4.17;;;0.90;99.90;;;;;;5051924;28;20288;-71
2022/01/09 07:05:09;;;;;;;6.70;3.70;;;0.90;99.90;;;;;;5051251;28;20238;-70
2022/01/09 07:07:34;;;;;;;6.67;3.57;;;0.90;99.90;;;;;;5052084;28;20214;-70
2022/01/09 07:10:00;;;;;;;6.80;3.83;;;0.90;99.90;;;;;;5052303;28;20218;-70
2022/01/09 07:12:25;;;;;;;6.33;3.57;;;0.90;99.90;;;;;;5051582;28;20887;-72
2022/01/09 07:14:51;;;;;;;7.97;4.10;;;0.90;99.90;;;;;;5053305;28;20224;-71
2022/01/09 07:17:16;;;;;;;8.00;4.07;;;1.00;99.90;;;;;;5053237;28;20218;-71
2022/01/09 07:19:42;;;;;;;6.13;3.73;;;0.90;99.90;;;;;;5052520;28;20212;-72
2022/01/09 07:22:07;;;;;;;7.40;4.50;;;0.90;99.90;;;;;;5053097;28;20269;-71
2022/01/09 07:24:33;;;;;;;6.53;4.60;;;0.90;99.90;;;;;;5051197;28;20225;-71
2022/01/09 07:26:59;;;;;;;6.27;4.00;;;0.90;99.90;;;;;;5053374;28;20176;-71
2022/01/09 07:29:24;;;;;;;9.37;4.20;;;1.00;99.90;;;;;;5052579;28;20262;-71
2022/01/09 07:31:53;;;;;;;6.27;3.67;;;1.00;99.90;;;;;;5052633;28;20270;-71
2022/01/09 07:34:19;;;;;;;6.40;3.47;;;1.00;99.90;;;;;;5052635;28;20214;-71
2022/01/09 07:36:45;;;;;;;7.53;4.37;;;1.10;99.90;;;;;;5052703;28;20677;-71
2022/01/09 07:39:11;;;;;;;8.17;4.37;;;1.10;99.90;;;;;;5051057;28;20195;-70
2022/01/09 07:41:38;;;;;;;7.60;4.07;;;1.10;99.90;;;;;;5051120;28;20213;-70
2022/01/09 07:44:03;;;;;;;7.53;4.10;;;1.10;99.90;;;;;;5052578;28;20219;-75
2022/01/09 07:46:29;;;;;;;7.57;4.10;;;1.10;99.90;;;;;;5052437;28;20209;-71
2022/01/09 07:48:55;;;;;;;8.00;4.50;;;1.10;99.90;;;;;;5051355;28;20211;-72
2022/01/09 07:51:20;;;;;;;8.93;4.47;;;1.10;99.90;;;;;;5052037;28;20248;-70
2022/01/09 07:53:46;;;;;;;7.00;4.50;;;1.10;99.90;;;;;;5052938;28;20223;-70
2022/01/09 07:56:11;;;;;;;8.37;3.97;;;1.20;99.90;;;;;;5052274;28;20355;-70
2022/01/09 07:58:37;;;;;;;7.67;4.20;;;1.20;99.90;;;;;;5052073;28;20595;-70
2022/01/09 08:01:02;;;;;;;7.60;4.50;;;1.20;99.90;;;;;;5052359;28;20264;-70
2022/01/09 08:03:28;;;;;;;7.20;4.57;;;1.20;99.90;;;;;;5052281;28;20666;-70
2022/01/09 08:05:53;;;;;;;7.43;4.47;;;1.30;99.90;;;;;;5051216;28;20181;-71
2022/01/09 08:08:19;;;;;;;9.67;4.73;;;1.30;99.90;;;;;;5050759;28;20216;-70
2022/01/09 08:10:44;;;;;;;8.00;4.37;;;1.30;99.90;;;;;;5066874;28;20645;-70
2022/01/09 08:13:10;;;;;;;10.57;4.87;;;1.30;99.90;;;;;;5067454;28;20211;-70
2022/01/09 08:15:35;;;;;;;8.17;4.80;;;1.30;99.90;;;;;;5050456;28;20195;-70
2022/01/09 08:18:01;;;;;;;9.60;5.87;;;1.30;99.90;;;;;;5051212;28;20183;-70
2022/01/09 08:20:26;;;;;;;8.97;4.53;;;1.40;99.90;;;;;;5051905;28;20595;-70
2022/01/09 08:22:52;;;;;;;8.40;4.87;;;1.40;99.90;;;;;;5052072;28;20262;-74
2022/01/09 08:25:18;;;;;;;8.60;4.73;;;1.40;99.90;;;;;;5050136;28;20640;-71
2022/01/09 08:27:45;;;;;;;10.27;5.27;;;1.40;99.90;;;;;;5050530;28;20215;-71
2022/01/09 08:30:12;;;;;;;9.53;4.60;;;1.40;99.90;;;;;;5052127;28;20183;-72
2022/01/09 08:32:38;;;;;;;8.17;4.40;;;1.50;99.90;;;;;;5051931;28;20219;-70
2022/01/09 08:35:05;;;;;;;9.10;5.23;;;1.50;99.90;;;;;;5050170;28;20234;-69
2022/01/09 08:37:31;;;;;;;10.17;5.10;;;1.50;99.90;;;;;;5050308;28;20209;-70
2022/01/09 08:39:56;;;;;;;12.53;5.07;;;1.60;99.90;;;;;;5051173;28;20256;-69
2022/01/09 08:42:22;;;;;;;9.67;4.97;;;1.60;99.90;;;;;;5051285;28;20625;-70
2022/01/09 08:44:48;;;;;;;10.27;5.03;;;1.60;99.90;;;;;;5051879;28;20199;-70
2022/01/09 08:47:14;;;;;;;9.80;5.63;;;1.60;99.90;;;;;;5050255;28;20211;-70
2022/01/09 08:49:39;;;;;;;7.70;5.27;;;1.60;99.90;;;;;;5051237;28;20214;-70
2022/01/09 08:52:05;;;;;;;11.27;5.60;;;1.70;99.90;;;;;;5051151;28;20230;-71
2022/01/09 08:54:31;;;;;;;10.17;5.33;;;1.70;99.90;;;;;;5051075;28;20225;-71
2022/01/09 08:56:57;;;;;;;11.17;5.60;;;1.60;99.90;;;;;;5050507;28;20186;-71
2022/01/09 08:59:23;;;;;;;13.43;5.83;;;1.60;99.90;;;;;;5050811;28;20716;-71
2022/01/09 09:01:49;;;;;;;9.53;4.83;;;1.60;99.90;;;;;;5050097;28;20241;-70
2022/01/09 09:04:15;;;;;;;10.53;6.07;;;1.70;99.90;;;;;;5050927;28;20226;-71
2022/01/09 09:06:41;;;;;;;8.83;4.33;;;1.70;99.90;;;;;;5051214;28;20312;-70
2022/01/09 09:09:08;;;;;;;8.43;4.63;;;1.70;99.90;;;;;;5051370;28;20648;-70
2022/01/09 09:11:34;;;;;;;7.87;4.60;;;1.80;99.90;;;;;;5048977;28;20247;-72
2022/01/09 09:14:02;;;;;;;8.53;4.53;;;1.80;99.90;;;;;;5050762;28;20785;-71
2022/01/09 09:16:27;;;;;;;9.17;4.47;;;1.80;99.90;;;;;;5050233;28;20807;-70
2022/01/09 09:18:53;;;;;;;10.83;5.27;;;1.80;99.90;;;;;;5050238;28;20222;-71
2022/01/09 09:21:19;;;;;;;9.60;5.07;;;1.90;99.90;;;;;;5049312;28;20962;-71
2022/01/09 09:23:45;;;;;;;11.10;5.40;;;1.90;99.90;;;;;;5051163;28;20294;-71
2022/01/09 09:26:10;;;;;;;9.73;4.60;;;1.90;99.90;;;;;;5050644;28;20208;-71
2022/01/09 09:28:36;;;;;;;10.53;5.33;;;1.90;99.90;;;;;;5050157;28;20219;-67
2022/01/09 09:31:03;;;;;;;8.47;4.70;;;1.90;99.90;;;;;;5050041;28;20311;-70
2022/01/09 09:33:28;;;;;;;10.60;4.83;;;2.00;99.90;;;;;;5050328;28;20199;-71
2022/01/09 09:35:54;;;;;;;9.33;4.97;;;2.00;99.90;;;;;;5051302;28;20172;-70
2022/01/09 09:38:19;;;;;;;7.10;4.43;;;2.00;99.90;;;;;;5050376;28;20223;-72
2022/01/09 09:40:45;;;;;;;12.97;4.93;;;2.10;99.90;;;;;;5048442;28;20207;-69
2022/01/09 09:43:11;;;;;;;8.10;4.43;;;2.10;99.90;;;;;;5050384;28;20222;-69
2022/01/09 09:45:36;;;;;;;8.13;4.67;;;2.10;99.90;;;;;;5050288;28;20221;-70
2022/01/09 09:48:02;;;;;;;9.37;4.53;;;2.20;99.90;;;;;;5050949;28;20254;-69
2022/01/09 09:50:28;;;;;;;8.60;4.60;;;2.10;99.90;;;;;;5052723;28;20273;-70
2022/01/09 09:52:53;;;;;;;8.07;4.10;;;2.30;99.90;;;;;;5051153;28;20253;-70
2022/01/09 09:55:19;;;;;;;7.77;4.37;;;2.40;99.90;;;;;;5050278;28;20211;-71
2022/01/09 09:57:45;;;;;;;10.47;5.03;;;2.40;99.90;;;;;;5049190;28;20612;-69
2022/01/09 10:00:17;;;;;;;5.87;4.00;;;2.30;99.90;;;;;;5050210;28;20215;-70
2022/01/09 10:02:48;;;;;;;8.87;4.27;;;2.40;99.90;;;;;;5050977;28;20254;-70
2022/01/09 10:05:17;;;;;;;9.27;5.20;;;2.40;99.90;;;;;;5048782;28;20231;-70
2022/01/09 10:07:43;;;;;;;8.00;4.23;;;2.40;99.90;;;;;;5050347;28;20218;-70
2022/01/09 10:10:18;;;;;;;8.03;4.30;;;2.50;99.90;;;;;;5050924;28;20210;-70
2022/01/09 10:12:46;;;;;;;11.07;4.43;;;2.50;99.90;;;;;;5051564;28;20203;-71
2022/01/09 10:15:17;;;;;;;9.97;4.53;;;2.50;99.90;;;;;;5056896;28;20222;-72
2022/01/09 10:17:45;;;;;;;7.60;4.40;;;2.60;99.90;;;;;;5056041;28;20714;-72
2022/01/09 10:20:17;;;;;;;9.33;4.57;;;2.70;99.90;;;;;;5067329;28;20207;-72
2022/01/09 10:22:44;;;;;;;7.23;4.93;;;2.60;99.90;;;;;;5050745;28;21636;-70
2022/01/09 10:25:36;;;;;;;7.47;4.37;;;2.70;99.90;;;;;;5053237;28;20218;-71
2022/01/09 10:28:08;;;;;;;8.27;4.27;;;2.80;99.90;;;;;;5054736;28;20199;-71
2022/01/09 10:30:46;;;;;;;6.00;4.00;;;2.90;99.90;;;;;;5054649;28;20179;-71
2022/01/09 10:33:26;;;;;;;6.40;3.53;;;3.00;99.90;;;;;;5055060;28;20176;-72
2022/01/09 10:35:52;;;;;;;7.93;4.33;;;3.00;99.90;;;;;;5055357;28;20219;-72
2022/01/09 10:38:22;;;;;;;6.57;3.83;;;3.10;99.90;;;;;;5055718;28;20273;-71
2022/01/09 10:40:53;;;;;;;6.37;4.27;;;3.10;99.90;;;;;;5055510;28;20207;-72
2022/01/09 10:43:21;;;;;;;8.50;3.73;;;2.90;99.90;;;;;;5053977;28;20268;-77
2022/01/09 10:45:56;;;;;;;8.10;4.40;;;3.00;99.90;;;;;;5050725;28;20241;-72
2022/01/09 10:48:23;;;;;;;8.67;3.90;;;3.00;99.90;;;;;;5053600;28;20179;-72
2022/01/09 10:50:50;;;;;;;6.53;4.20;;;3.00;99.90;;;;;;5053211;28;20702;-74
2022/01/09 10:53:34;;;;;;;8.57;4.07;;;3.00;99.90;;;;;;5054375;28;20208;-72
2022/01/09 10:56:01;;;;;;;7.47;4.03;;;3.00;99.90;;;;;;5053989;28;20204;-73
2022/01/09 10:58:27;;;;;;;7.47;4.53;;;3.00;99.90;;;;;;5051985;28;20215;-72
2022/01/09 11:01:13;;;;;;;8.40;4.17;;;3.00;99.90;;;;;;5053725;28;20218;-72
2022/01/09 11:03:40;;;;;;;6.97;4.33;;;3.10;99.90;;;;;;5053529;28;20219;-72
2022/01/09 11:06:08;;;;;;;5.80;3.50;;;3.10;99.90;;;;;;5052445;28;20183;-71
2022/01/09 11:08:35;;;;;;;7.87;3.50;;;2.90;99.90;;;;;;5051875;28;20206;-71
2022/01/09 11:11:02;;;;;;;5.90;3.70;;;3.00;99.90;;;;;;5051960;28;20209;-72
2022/01/09 11:13:29;;;;;;;8.07;4.00;;;3.00;99.90;;;;;;5053141;28;20212;-71
2022/01/09 11:18:43;;;;;;;6.57;3.77;;;3.20;99.90;;;;;;5052374;28;20264;-69
2022/01/09 11:21:09;;;;;;;5.67;3.57;;;3.30;99.90;;;;;;5053289;28;20180;-71
2022/01/09 11:24:01;;;;;;;7.23;4.53;;;3.30;99.90;;;;;;5052898;28;20225;-70
2022/01/09 11:26:59;;;;;;;9.63;4.27;;;3.30;99.90;;;;;;5031893;28;20212;-70
2022/01/09 11:29:51;;;;;;;7.23;3.77;;;3.30;99.90;;;;;;5015896;28;20223;-70
2022/01/09 11:32:53;;;;;;;6.20;3.57;;;3.30;99.90;;;;;;5030221;28;20224;-72
2022/01/09 11:35:50;;;;;;;6.47;3.97;;;3.30;99.90;;;;;;5028903;28;20223;-72
2022/01/09 11:38:25;;;;;;;6.20;3.90;;;3.40;99.90;;;;;;5034305;28;20216;-72
2022/01/09 11:40:51;;;;;;;5.73;3.93;;;3.40;99.90;;;;;;5025371;28;20547;-70
2022/01/09 11:43:19;;;;;;;7.73;4.67;;;3.50;99.90;;;;;;5031724;28;20222;-72
2022/01/09 11:45:58;;;;;;;8.17;4.07;;;3.60;99.90;;;;;;5032024;28;20311;-70
2022/01/09 11:49:06;;;;;;;6.47;3.43;;;3.60;99.90;;;;;;5031920;28;20311;-70
2022/01/09 11:51:34;;;;;;;6.93;3.37;;;3.60;99.90;;;;;;4998072;28;20182;-74
2022/01/09 11:54:15;;;;;;;7.53;4.20;;;3.70;99.90;;;;;;5007109;28;20610;-70
2022/01/09 11:56:54;;;;;;;7.07;4.13;;;3.70;99.90;;;;;;5011482;28;20224;-75
2022/01/09 11:59:33;;;;;;;8.13;5.00;;;3.60;99.90;;;;;;5029643;28;20271;-70
2022/01/09 12:02:01;;;;;;;7.53;3.97;;;3.70;99.90;;;;;;5043340;28;20262;-71
2022/01/09 12:04:33;;;;;;;7.20;3.87;;;3.70;99.90;;;;;;5035619;28;20761;-72
2022/01/09 12:06:59;;;;;;;6.87;4.53;;;3.70;99.90;;;;;;5025153;28;20216;-72
2022/01/09 12:09:36;;;;;;;9.33;3.80;;;3.70;99.90;;;;;;5016680;28;20236;-71
2022/01/09 12:12:13;;;;;;;5.87;3.80;;;3.70;99.90;;;;;;5035882;28;20207;-73
2022/01/09 12:14:41;;;;;;;7.67;4.57;;;3.70;99.90;;;;;;5024658;28;20220;-71
2022/01/09 12:17:23;;;;;;;6.13;4.00;;;3.70;99.90;;;;;;5026704;28;20216;-71
2022/01/09 12:20:04;;;;;;;7.40;4.10;;;3.70;99.90;;;;;;5031809;28;20745;-71
2022/01/09 12:22:51;;;;;;;6.83;4.53;;;3.80;99.90;;;;;;5031864;28;20224;-72
2022/01/09 12:25:22;;;;;;;9.07;4.47;;;3.80;99.90;;;;;;5016672;28;20240;-71
2022/01/09 12:28:11;;;;;;;6.03;3.67;;;3.80;99.90;;;;;;5022046;28;20215;-71
2022/01/09 12:30:40;;;;;;;7.77;3.90;;;3.90;99.90;;;;;;5022658;28;20222;-72
2022/01/09 12:33:14;;;;;;;7.37;4.00;;;3.80;99.90;;;;;;5032297;28;20172;-75
2022/01/09 12:35:45;;;;;;;7.03;3.93;;;3.80;99.90;;;;;;5029694;28;20283;-71
2022/01/09 12:38:19;;;;;;;6.43;3.70;;;3.80;99.90;;;;;;5031685;28;20214;-75
2022/01/09 12:40:45;;;;;;;6.10;3.43;;;4.10;99.90;;;;;;5021021;28;20220;-71
2022/01/09 12:43:12;;;;;;;6.93;4.00;;;4.20;99.90;;;;;;5020040;28;20241;-70
2022/01/09 12:45:42;;;;;;;5.97;3.63;;;4.00;99.90;;;;;;5029590;28;20216;-68
2022/01/09 12:48:15;;;;;;;5.33;3.53;;;4.10;99.90;;;;;;5030257;28;20658;-70
2022/01/09 12:50:41;;;;;;;7.43;4.00;;;4.10;99.90;;;;;;5031166;28;20213;-70
2022/01/09 12:53:26;;;;;;;7.30;3.77;;;4.10;99.90;;;;;;5043966;28;20652;-72
2022/01/09 12:55:56;;;;;;;6.27;3.40;;;3.90;99.90;;;;;;5027050;28;20224;-71
2022/01/09 12:58:44;;;;;;;6.33;3.83;;;3.90;99.90;;;;;;5027244;28;20224;-73
2022/01/09 13:01:12;;;;;;;6.63;3.97;;;3.90;99.90;;;;;;5026215;28;20253;-76
2022/01/09 13:03:40;;;;;;;7.83;4.77;;;3.70;99.90;;;;;;5029043;28;20221;-75